Terminal Aerodrome Forecast
Issued by NWS

Home | Current Version | Previous Version | Text Only | Print | Product List | Glossary On
Versions: 1 2 3 4 5 6 7 8 9 10 11 12
000
FTUS44 KEPZ 040500
TAFLRU
TAF
KLRU 040537Z 0406/0506 27005KT P6SM SCT090
     FM041900 20012KT P6SM VCSH SCT100
     FM050000 22013G25KT P6SM VCSH SCT120=

USA.gov is the U.S. government's official web portal to all federal, state and local government web resources and services.